createdAt,value
2022-12-15T00:00:30.486Z,99.53
2022-12-15T00:03:23.530Z,99.91
2022-12-15T00:06:10.659Z,99.75
2022-12-15T00:08:56.621Z,99.50
2022-12-15T00:11:42.652Z,99.21
2022-12-15T00:14:27.877Z,99.37
2022-12-15T00:17:14.074Z,98.89
2022-12-15T00:20:01.238Z,98.23
2022-12-15T00:22:47.525Z,98.20
2022-12-15T00:25:33.981Z,97.98
2022-12-15T00:28:20.255Z,97.34
2022-12-15T00:31:05.728Z,97.41
2022-12-15T00:33:51.775Z,97.41
2022-12-15T00:36:38.526Z,97.14
2022-12-15T00:39:07.428Z,97.26
2022-12-15T00:41:35.401Z,97.10
2022-12-15T00:44:03.868Z,96.80
2022-12-15T00:46:50.279Z,97.09
2022-12-15T00:49:32.253Z,97.37
2022-12-15T00:52:19.618Z,97.70
2022-12-15T00:55:04.955Z,97.92
2022-12-15T00:57:51.233Z,98.41
2022-12-15T01:00:36.639Z,98.61
2022-12-15T01:03:29.605Z,98.26
2022-12-15T01:06:15.426Z,98.21
2022-12-15T01:09:03.436Z,96.18
2022-12-15T01:11:48.584Z,94.68
2022-12-15T01:14:34.714Z,93.51
2022-12-15T01:17:19.967Z,94.28
2022-12-15T01:20:05.623Z,93.85
2022-12-15T01:22:37.096Z,92.34
2022-12-15T01:25:09.276Z,91.19
2022-12-15T01:27:37.294Z,94.85
2022-12-15T01:30:08.266Z,95.25
2022-12-15T01:32:41.414Z,94.49
2022-12-15T01:35:13.166Z,93.61
2022-12-15T01:37:41.577Z,93.14
2022-12-15T01:40:32.202Z,94.17
2022-12-15T01:43:01.224Z,93.58
2022-12-15T01:45:48.016Z,94.39
2022-12-15T01:48:21.987Z,95.01
2022-12-15T01:51:00.083Z,95.76
2022-12-15T01:53:29.529Z,93.92
2022-12-15T01:56:00.148Z,94.10
2022-12-15T01:58:28.135Z,94.64
2022-12-15T02:00:56.152Z,95.40
2022-12-15T02:03:26.900Z,94.78
2022-12-15T02:05:56.146Z,95.69
2022-12-15T02:08:24.596Z,96.33
2022-12-15T02:11:11.977Z,97.02
2022-12-15T02:13:49.764Z,95.52
2022-12-15T02:16:24.606Z,93.41
2022-12-15T02:19:02.546Z,94.33
2022-12-15T02:21:33.309Z,95.38
2022-12-15T02:24:40.232Z,93.47
2022-12-15T02:27:22.767Z,93.66
2022-12-15T02:30:21.342Z,92.73
2022-12-15T02:33:04.855Z,92.85
2022-12-15T02:35:43.673Z,92.69
2022-12-15T02:38:11.914Z,93.47
2022-12-15T02:40:40.622Z,93.40
2022-12-15T02:43:11.570Z,94.74
2022-12-15T02:45:52.977Z,95.40
2022-12-15T02:48:32.655Z,95.52
2022-12-15T02:51:17.659Z,96.49
2022-12-15T02:54:07.453Z,94.29
2022-12-15T02:56:42.641Z,94.93
2022-12-15T02:59:19.205Z,93.24
2022-12-15T03:01:52.542Z,92.64
2022-12-15T03:04:24.522Z,94.08
2022-12-15T03:07:00.842Z,96.28
2022-12-15T03:09:30.221Z,95.24
2022-12-15T03:11:58.244Z,96.54
2022-12-15T03:14:26.734Z,98.06
2022-12-15T03:16:56.037Z,98.25
2022-12-15T03:19:25.907Z,98.45
2022-12-15T03:21:54.933Z,98.77
2022-12-15T03:24:22.912Z,98.84
2022-12-15T03:26:51.881Z,99.31
2022-12-15T03:29:21.523Z,99.15
2022-12-15T03:31:50.069Z,99.91
2022-12-15T03:34:19.591Z,99.99
2022-12-15T03:36:49.442Z,99.99
2022-12-15T03:39:17.443Z,99.99
2022-12-15T03:41:45.870Z,99.99
2022-12-15T03:44:14.662Z,99.99
2022-12-15T03:46:42.621Z,99.99
2022-12-15T03:49:11.010Z,99.99
2022-12-15T03:51:39.789Z,99.99
2022-12-15T03:54:09.258Z,99.99
2022-12-15T03:56:37.985Z,99.99
2022-12-15T03:59:05.919Z,99.47
2022-12-15T04:01:36.102Z,99.18
2022-12-15T04:04:06.446Z,99.14
2022-12-15T04:06:34.427Z,98.96
2022-12-15T04:09:02.871Z,98.94
2022-12-15T04:11:32.605Z,97.11
2022-12-15T04:14:00.553Z,96.77
2022-12-15T04:16:28.513Z,96.60
2022-12-15T04:19:11.399Z,96.70
2022-12-15T04:21:39.589Z,96.95
2022-12-15T04:24:25.735Z,97.43
2022-12-15T04:27:12.495Z,97.20
2022-12-15T04:29:58.782Z,97.33
2022-12-15T04:32:44.257Z,97.24
2022-12-15T04:35:36.399Z,96.88
2022-12-15T04:38:22.074Z,95.96
2022-12-15T04:41:08.220Z,95.65
2022-12-15T04:43:55.482Z,95.53
2022-12-15T04:46:41.270Z,95.48
2022-12-15T04:49:26.664Z,95.77
2022-12-15T04:52:12.842Z,95.36
2022-12-15T04:54:57.992Z,95.26
2022-12-15T04:57:44.124Z,95.16
2022-12-15T05:00:32.226Z,94.78
2022-12-15T05:03:23.377Z,94.80
2022-12-15T05:06:08.558Z,95.03
2022-12-15T05:08:54.836Z,95.41
2022-12-15T05:11:40.685Z,95.55
2022-12-15T05:14:27.432Z,95.63
2022-12-15T05:17:14.663Z,95.41
2022-12-15T05:20:01.125Z,94.94
2022-12-15T05:22:46.493Z,94.82
2022-12-15T05:25:33.365Z,95.08
2022-12-15T05:28:18.590Z,94.60
2022-12-15T05:31:05.178Z,94.97
2022-12-15T05:33:34.757Z,94.42
2022-12-15T05:36:02.844Z,94.64
2022-12-15T05:38:31.611Z,94.82
2022-12-15T05:40:59.764Z,94.38
2022-12-15T05:43:29.878Z,94.43
2022-12-15T05:46:04.439Z,94.13
2022-12-15T05:48:33.803Z,94.24
2022-12-15T05:51:05.397Z,94.11
2022-12-15T05:53:33.719Z,94.24
2022-12-15T05:56:03.226Z,94.14
2022-12-15T05:58:32.313Z,95.03
2022-12-15T06:01:06.904Z,95.66
2022-12-15T06:03:37.378Z,96.10
2022-12-15T06:06:05.522Z,95.95
2022-12-15T06:08:36.264Z,96.45
2022-12-15T06:11:05.692Z,96.56
2022-12-15T06:13:35.465Z,96.73
2022-12-15T06:16:06.764Z,97.37
2022-12-15T06:18:38.806Z,97.77
2022-12-15T06:21:11.636Z,97.74
2022-12-15T06:23:40.193Z,97.44
2022-12-15T06:26:14.691Z,97.52
2022-12-15T06:28:43.807Z,97.65
2022-12-15T06:31:13.450Z,97.29
2022-12-15T06:33:43.865Z,97.02
2022-12-15T06:36:14.687Z,96.63
2022-12-15T06:38:44.078Z,96.31
2022-12-15T06:41:13.607Z,96.20
2022-12-15T06:43:42.221Z,96.26
2022-12-15T06:46:11.499Z,96.25
2022-12-15T06:48:40.004Z,96.28
2022-12-15T06:51:16.386Z,96.03
2022-12-15T06:53:49.133Z,96.00
2022-12-15T06:56:20.784Z,95.89
2022-12-15T06:58:50.269Z,95.47
2022-12-15T07:01:19.494Z,95.77
2022-12-15T07:03:48.534Z,96.13
2022-12-15T07:06:18.757Z,96.30
2022-12-15T07:08:52.289Z,96.14
2022-12-15T07:11:22.271Z,95.95
2022-12-15T07:13:50.799Z,95.93
2022-12-15T07:16:19.053Z,95.92
2022-12-15T07:18:48.010Z,95.54
2022-12-15T07:21:17.640Z,95.94
2022-12-15T07:23:54.712Z,96.14
2022-12-15T07:26:24.296Z,96.15
2022-12-15T07:28:52.946Z,95.43
2022-12-15T07:31:21.500Z,95.23
2022-12-15T07:33:49.876Z,95.02
2022-12-15T07:36:19.532Z,94.69
2022-12-15T07:38:50.101Z,94.54
2022-12-15T07:41:20.334Z,94.23
2022-12-15T07:43:48.487Z,94.72
2022-12-15T07:46:16.643Z,93.99
2022-12-15T07:48:44.665Z,93.76
2022-12-15T07:51:21.668Z,93.32
2022-12-15T07:53:51.112Z,93.13
2022-12-15T07:56:19.814Z,92.22
2022-12-15T07:58:49.149Z,92.21
2022-12-15T08:01:18.190Z,92.78
2022-12-15T08:03:46.338Z,93.06
2022-12-15T08:06:16.814Z,93.31
2022-12-15T08:08:50.314Z,93.22
2022-12-15T08:11:21.824Z,92.86
2022-12-15T08:14:10.372Z,92.34
2022-12-15T08:16:40.125Z,92.39
2022-12-15T08:19:11.364Z,91.94
2022-12-15T08:21:41.231Z,92.32
2022-12-15T08:24:11.304Z,92.39
2022-12-15T08:26:41.338Z,92.46
2022-12-15T08:32:03.544Z,92.10
2022-12-15T08:34:31.621Z,91.71
2022-12-15T08:36:59.996Z,90.93
2022-12-15T08:39:30.054Z,91.03
2022-12-15T08:41:58.010Z,90.70
2022-12-15T08:44:25.926Z,90.76
2022-12-15T08:46:54.736Z,89.67
2022-12-15T08:49:22.756Z,89.79
2022-12-15T08:51:52.313Z,89.41
2022-12-15T08:54:21.166Z,89.85
2022-12-15T08:56:51.041Z,89.81
2022-12-15T08:59:20.610Z,89.48
2022-12-15T09:01:48.855Z,89.01
2022-12-15T09:04:17.753Z,88.58
2022-12-15T09:06:50.799Z,88.25
2022-12-15T09:09:19.226Z,88.94
2022-12-15T09:11:47.162Z,87.99
2022-12-15T09:14:17.624Z,87.21
2022-12-15T09:16:45.550Z,87.72
2022-12-15T09:19:13.936Z,88.25
2022-12-15T09:21:45.394Z,87.84
2022-12-15T09:24:23.224Z,87.13
2022-12-15T09:26:55.283Z,86.74
2022-12-15T09:29:24.641Z,87.36
2022-12-15T09:31:53.157Z,88.06
2022-12-15T09:34:21.865Z,87.63
2022-12-15T09:36:49.875Z,85.91
2022-12-15T09:39:18.548Z,87.15
2022-12-15T09:41:54.546Z,88.42
2022-12-15T09:44:26.774Z,89.38
2022-12-15T09:47:18.140Z,87.14
2022-12-15T09:49:56.124Z,86.92
2022-12-15T09:52:29.441Z,86.10
2022-12-15T09:54:58.697Z,86.46
2022-12-15T09:57:45.420Z,86.65
2022-12-15T10:00:22.260Z,85.70
2022-12-15T10:03:23.464Z,85.83
2022-12-15T10:06:17.110Z,85.74
2022-12-15T10:08:51.830Z,85.61
2022-12-15T10:11:30.488Z,85.07
2022-12-15T10:14:06.761Z,84.12
2022-12-15T10:16:46.230Z,84.17
2022-12-15T10:19:27.946Z,84.00
2022-12-15T10:21:57.369Z,84.67
2022-12-15T10:25:09.086Z,83.77
2022-12-15T10:27:37.623Z,83.68
2022-12-15T10:30:10.061Z,83.35
2022-12-15T10:32:50.659Z,84.26
2022-12-15T10:35:23.580Z,84.04
2022-12-15T10:37:51.540Z,83.25
2022-12-15T10:40:21.684Z,84.08
2022-12-15T10:42:52.132Z,83.93
2022-12-15T10:45:35.970Z,83.64
2022-12-15T10:48:07.532Z,83.99
2022-12-15T10:50:36.920Z,84.22
2022-12-15T10:53:10.375Z,84.79
2022-12-15T10:55:40.791Z,84.40
2022-12-15T10:58:18.722Z,83.76
2022-12-15T11:00:50.962Z,83.52
2022-12-15T11:03:26.997Z,84.03
2022-12-15T11:05:56.721Z,83.70
2022-12-15T11:08:25.738Z,83.40
2022-12-15T11:11:13.457Z,82.61
2022-12-15T11:13:42.543Z,82.53
2022-12-15T11:16:16.586Z,82.59
2022-12-15T11:18:49.851Z,81.77
2022-12-15T11:21:23.416Z,81.43
2022-12-15T11:24:05.866Z,81.27
2022-12-15T11:26:48.887Z,81.30
2022-12-15T11:29:27.548Z,81.67
2022-12-15T11:32:04.771Z,81.83
2022-12-15T11:34:38.806Z,81.92
2022-12-15T11:37:36.919Z,81.63
2022-12-15T11:40:20.682Z,81.13
2022-12-15T11:43:02.541Z,81.66
2022-12-15T11:45:42.082Z,81.48
2022-12-15T11:48:14.243Z,81.67
2022-12-15T11:50:53.503Z,81.01
2022-12-15T11:53:50.351Z,80.93
2022-12-15T11:56:29.424Z,80.99
2022-12-15T11:59:17.240Z,81.86
2022-12-15T12:02:05.846Z,81.03
2022-12-15T12:04:43.808Z,81.11
2022-12-15T12:07:25.958Z,80.64
2022-12-15T12:10:06.800Z,79.81
2022-12-15T12:12:43.757Z,79.67
2022-12-15T12:15:26.822Z,79.82
2022-12-15T12:17:59.174Z,79.57
2022-12-15T12:20:35.381Z,79.93
2022-12-15T12:23:11.004Z,79.84
2022-12-15T12:25:47.397Z,79.85
2022-12-15T12:28:20.467Z,80.04
2022-12-15T12:30:50.425Z,79.63
2022-12-15T12:33:31.534Z,80.57
2022-12-15T12:36:06.452Z,80.54
2022-12-15T12:38:41.377Z,80.88
2022-12-15T12:41:18.674Z,80.83
2022-12-15T12:43:51.624Z,80.48
2022-12-15T12:46:25.729Z,80.31
2022-12-15T12:48:56.803Z,80.31
2022-12-15T12:51:30.263Z,80.34
2022-12-15T12:54:00.806Z,80.68
2022-12-15T12:56:42.167Z,80.78
2022-12-15T12:59:36.321Z,80.82
2022-12-15T13:02:42.056Z,80.14
2022-12-15T13:05:28.619Z,79.53
2022-12-15T13:08:18.186Z,78.46
2022-12-15T13:10:50.861Z,76.37
2022-12-15T13:13:38.720Z,74.93
2022-12-15T13:16:12.279Z,74.47
2022-12-15T13:19:02.545Z,73.90
2022-12-15T13:21:55.323Z,73.95
2022-12-15T13:24:33.646Z,73.81
2022-12-15T13:27:16.460Z,73.33
2022-12-15T13:29:58.436Z,72.73
2022-12-15T13:32:36.014Z,71.90
2022-12-15T13:35:22.210Z,73.41
2022-12-15T13:37:52.472Z,71.93
2022-12-15T13:40:35.515Z,73.45
2022-12-15T13:43:38.675Z,70.82
2022-12-15T13:46:17.080Z,70.64
2022-12-15T13:48:49.297Z,71.09
2022-12-15T13:51:27.278Z,74.11
2022-12-15T13:54:00.457Z,74.84
2022-12-15T13:56:53.410Z,75.46
2022-12-15T13:59:30.421Z,77.58
2022-12-15T14:01:59.435Z,78.60
2022-12-15T14:04:28.211Z,79.15
2022-12-15T14:06:59.688Z,80.82
2022-12-15T14:09:31.466Z,81.05
2022-12-15T14:12:03.072Z,81.56
2022-12-15T14:14:35.838Z,82.68
2022-12-15T14:17:09.348Z,83.16
2022-12-15T14:19:40.209Z,84.14
2022-12-15T14:22:28.162Z,84.88
2022-12-15T14:25:03.283Z,85.02
2022-12-15T14:27:35.199Z,85.87
2022-12-15T14:30:24.624Z,85.93
2022-12-15T14:32:58.059Z,86.99
2022-12-15T14:35:31.161Z,87.30
2022-12-15T14:38:03.000Z,87.89
2022-12-15T14:40:31.329Z,88.07
2022-12-15T14:42:59.297Z,88.20
2022-12-15T14:45:32.710Z,88.47
2022-12-15T14:48:39.489Z,88.67
2022-12-15T14:50:51.992Z,88.42
2022-12-15T14:53:22.164Z,89.38
2022-12-15T14:55:51.609Z,89.51
2022-12-15T14:58:35.159Z,89.84
2022-12-15T15:01:07.268Z,89.30
2022-12-15T15:03:39.077Z,89.54
2022-12-15T15:06:16.701Z,90.00
2022-12-15T15:08:48.977Z,90.18
2022-12-15T15:11:29.397Z,90.72
2022-12-15T15:14:01.457Z,91.17
2022-12-15T15:16:31.113Z,91.25
2022-12-15T15:19:03.229Z,90.97
2022-12-15T15:21:35.146Z,91.22
2022-12-15T15:24:05.742Z,91.94
2022-12-15T15:26:33.783Z,92.14
2022-12-15T15:29:02.509Z,92.29
2022-12-15T15:31:41.541Z,92.25
2022-12-15T15:34:11.401Z,92.06
2022-12-15T15:36:40.600Z,92.08
2022-12-15T15:39:15.228Z,92.29
2022-12-15T15:41:44.229Z,92.55
2022-12-15T15:44:15.002Z,93.01
2022-12-15T15:46:49.832Z,93.02
2022-12-15T15:49:21.528Z,93.35
2022-12-15T15:51:50.614Z,92.82
2022-12-15T15:54:21.201Z,92.60
2022-12-15T15:56:49.717Z,92.58
2022-12-15T15:59:21.477Z,92.63
2022-12-15T16:01:54.415Z,92.64
2022-12-15T16:04:24.746Z,92.61
2022-12-15T16:06:53.691Z,92.63
2022-12-15T16:09:22.409Z,92.21
2022-12-15T16:11:51.226Z,91.98
2022-12-15T16:14:19.691Z,92.58
2022-12-15T16:16:47.696Z,92.60
2022-12-15T16:19:17.455Z,92.22
2022-12-15T16:21:45.408Z,91.67
2022-12-15T16:24:17.696Z,91.91
2022-12-15T16:26:49.502Z,92.01
2022-12-15T16:29:22.489Z,91.51
2022-12-15T16:31:50.366Z,91.34
2022-12-15T16:34:21.759Z,91.60
2022-12-15T16:36:50.661Z,91.72
2022-12-15T16:39:26.717Z,92.23
2022-12-15T16:41:56.779Z,93.70
2022-12-15T16:44:25.785Z,94.02
2022-12-15T16:46:53.967Z,93.89
2022-12-15T16:49:23.304Z,94.10
2022-12-15T16:51:53.889Z,93.75
2022-12-15T16:54:24.658Z,93.67
2022-12-15T16:56:54.185Z,93.68
2022-12-15T16:59:34.926Z,93.88
2022-12-15T17:02:19.237Z,94.02
2022-12-15T17:04:48.820Z,94.15
2022-12-15T17:07:20.429Z,94.80
2022-12-15T17:09:50.812Z,95.31
2022-12-15T17:12:19.336Z,95.25
2022-12-15T17:14:48.128Z,95.28
2022-12-15T17:17:18.224Z,95.21
2022-12-15T17:20:11.731Z,95.12
2022-12-15T17:22:36.265Z,95.89
2022-12-15T17:25:04.028Z,96.06
2022-12-15T17:27:32.025Z,95.73
2022-12-15T17:30:03.456Z,95.82
2022-12-15T17:32:31.548Z,96.01
2022-12-15T17:34:59.550Z,95.97
2022-12-15T17:37:34.883Z,96.11
2022-12-15T17:40:14.777Z,95.78
2022-12-15T17:42:43.695Z,95.57
2022-12-15T17:45:20.903Z,95.79
2022-12-15T17:47:50.602Z,95.81
2022-12-15T17:50:19.404Z,95.75
2022-12-15T17:52:49.536Z,95.74
2022-12-15T17:55:29.077Z,95.97
2022-12-15T17:58:00.077Z,95.77
2022-12-15T18:00:30.787Z,95.57
2022-12-15T18:03:00.623Z,95.41
2022-12-15T18:05:31.711Z,94.87
2022-12-15T18:08:02.609Z,95.15
2022-12-15T18:10:36.608Z,94.59
2022-12-15T18:13:05.344Z,94.68
2022-12-15T18:15:34.036Z,95.29
2022-12-15T18:18:01.975Z,95.02
2022-12-15T18:20:29.955Z,94.88
2022-12-15T18:22:58.796Z,94.95
2022-12-15T18:25:28.423Z,95.17
2022-12-15T18:27:59.763Z,94.65
2022-12-15T18:30:28.323Z,95.27
2022-12-15T18:32:59.887Z,96.03
2022-12-15T18:35:34.247Z,95.51
2022-12-15T18:38:02.178Z,95.20
2022-12-15T18:40:31.324Z,95.87
2022-12-15T18:43:01.618Z,95.04
2022-12-15T18:45:29.613Z,94.85
2022-12-15T18:47:57.927Z,95.22
2022-12-15T18:50:27.996Z,96.03
2022-12-15T18:53:00.260Z,95.95
2022-12-15T18:55:31.972Z,96.83
2022-12-15T18:58:02.818Z,96.84
2022-12-15T19:00:32.906Z,96.44
2022-12-15T19:03:02.773Z,95.76
2022-12-15T19:05:33.039Z,96.38
2022-12-15T19:08:04.305Z,96.85
2022-12-15T19:10:35.828Z,97.45
2022-12-15T19:13:05.421Z,96.65
2022-12-15T19:15:33.684Z,96.48
2022-12-15T19:18:19.458Z,96.16
2022-12-15T19:21:05.103Z,95.77
2022-12-15T19:23:34.751Z,96.00
2022-12-15T19:26:03.167Z,96.47
2022-12-15T19:28:33.614Z,97.12
2022-12-15T19:31:01.775Z,97.31
2022-12-15T19:33:30.986Z,96.90
2022-12-15T19:36:00.410Z,97.20
2022-12-15T19:38:31.195Z,97.61
2022-12-15T19:41:01.080Z,98.23
2022-12-15T19:43:29.547Z,98.14
2022-12-15T19:45:59.211Z,98.73
2022-12-15T19:48:28.205Z,98.44
2022-12-15T19:50:56.202Z,97.59
2022-12-15T19:53:26.823Z,97.01
2022-12-15T19:55:57.746Z,96.75
2022-12-15T19:58:29.042Z,96.38
2022-12-15T20:01:02.233Z,97.04
2022-12-15T20:03:31.837Z,97.26
2022-12-15T20:06:02.813Z,97.70
2022-12-15T20:08:35.227Z,97.52
2022-12-15T20:11:03.743Z,98.01
2022-12-15T20:13:32.121Z,98.11
2022-12-15T20:16:01.792Z,97.59
2022-12-15T20:18:30.770Z,97.47
2022-12-15T20:21:01.387Z,97.76
2022-12-15T20:23:32.469Z,97.77
2022-12-15T20:26:01.269Z,98.05
2022-12-15T20:28:30.793Z,98.69
2022-12-15T20:30:59.376Z,99.10
2022-12-15T20:33:28.893Z,99.46
2022-12-15T20:35:57.708Z,99.09
2022-12-15T20:38:29.736Z,99.15
2022-12-15T20:40:58.568Z,98.67
2022-12-15T20:43:32.187Z,97.63
2022-12-15T20:46:04.889Z,97.87
2022-12-15T20:48:37.333Z,97.85
2022-12-15T20:51:09.566Z,97.10
2022-12-15T20:53:38.919Z,97.58
2022-12-15T20:56:07.363Z,98.04
2022-12-15T20:58:41.801Z,98.11
2022-12-15T21:01:21.884Z,98.39
2022-12-15T21:03:52.749Z,98.46
2022-12-15T21:06:22.244Z,98.85
2022-12-15T21:08:50.494Z,99.12
2022-12-15T21:11:21.683Z,99.71
2022-12-15T21:13:51.279Z,99.32
2022-12-15T21:16:21.556Z,97.82
2022-12-15T21:19:18.540Z,97.31
2022-12-15T21:21:43.213Z,98.05
2022-12-15T21:24:16.626Z,98.95
2022-12-15T21:26:45.040Z,98.57
2022-12-15T21:29:14.783Z,98.80
2022-12-15T21:31:44.293Z,98.79
2022-12-15T21:34:14.190Z,98.17
2022-12-15T21:36:44.940Z,97.72
2022-12-15T21:39:17.018Z,97.43
2022-12-15T21:41:45.588Z,98.01
2022-12-15T21:44:14.715Z,98.22
2022-12-15T21:46:43.342Z,98.45
2022-12-15T21:49:15.352Z,98.46
2022-12-15T21:51:45.377Z,98.73
2022-12-15T21:54:19.619Z,99.12
2022-12-15T21:56:48.643Z,98.90
2022-12-15T21:59:18.700Z,98.69
2022-12-15T22:01:48.031Z,99.99
2022-12-15T22:04:22.566Z,99.99
2022-12-15T22:06:51.459Z,99.99
2022-12-15T22:09:21.184Z,99.99
2022-12-15T22:11:53.334Z,99.47
2022-12-15T22:14:26.526Z,99.36
2022-12-15T22:16:55.966Z,98.76
2022-12-15T22:19:25.552Z,98.78
2022-12-15T22:21:54.234Z,98.06
2022-12-15T22:24:23.429Z,97.59
2022-12-15T22:26:51.576Z,98.21
2022-12-15T22:29:22.305Z,97.54
2022-12-15T22:31:52.144Z,97.84
2022-12-15T22:34:22.368Z,99.05
2022-12-15T22:36:52.790Z,98.95
2022-12-15T22:39:23.014Z,99.25
2022-12-15T22:41:54.237Z,99.69
2022-12-15T22:44:24.870Z,99.52
2022-12-15T22:46:57.315Z,99.24
2022-12-15T22:49:30.048Z,99.67
2022-12-15T22:52:00.329Z,99.44
2022-12-15T22:54:29.979Z,98.42
2022-12-15T22:57:02.332Z,98.76
2022-12-15T22:59:37.009Z,99.25
2022-12-15T23:02:06.565Z,99.99
2022-12-15T23:04:34.867Z,99.62
2022-12-15T23:07:10.501Z,99.48
2022-12-15T23:09:38.587Z,99.69
2022-12-15T23:12:05.974Z,99.99
2022-12-15T23:14:52.086Z,98.38
2022-12-15T23:17:20.112Z,98.04
2022-12-15T23:19:48.923Z,98.56
2022-12-15T23:22:18.951Z,98.73
2022-12-15T23:24:46.899Z,99.87
2022-12-15T23:27:15.994Z,99.56
2022-12-15T23:29:43.931Z,98.71
2022-12-15T23:32:12.403Z,98.11
2022-12-15T23:34:41.126Z,97.39
2022-12-15T23:37:09.144Z,97.34
2022-12-15T23:39:38.515Z,97.16
2022-12-15T23:42:07.613Z,96.77
2022-12-15T23:44:37.376Z,96.89
2022-12-15T23:47:06.145Z,96.82
2022-12-15T23:49:34.304Z,97.65
2022-12-15T23:52:02.289Z,97.09
2022-12-15T23:54:30.450Z,97.48
2022-12-15T23:57:00.771Z,97.67
2022-12-15T23:59:28.792Z,98.44
